createdAt,value
2019-01-04T00:00:17.877Z,0.13
2019-01-04T00:02:45.038Z,0.25
2019-01-04T00:05:12.190Z,0.27
2019-01-04T00:07:39.423Z,0.26
2019-01-04T00:10:06.577Z,0.25
2019-01-04T00:12:33.782Z,0.24
2019-01-04T00:15:00.896Z,0.24
2019-01-04T00:17:28.271Z,0.17
2019-01-04T00:19:55.693Z,0.07
2019-01-04T00:22:22.844Z,0.01
2019-01-04T00:24:50.080Z,-0.06
2019-01-04T00:27:17.236Z,-0.07
2019-01-04T00:29:44.476Z,-0.12
2019-01-04T00:32:11.625Z,-0.18
2019-01-04T00:34:39.111Z,-0.19
2019-01-04T00:37:06.300Z,-0.18
2019-01-04T00:39:33.744Z,-0.18
2019-01-04T00:42:00.917Z,-0.17
2019-01-04T00:44:28.127Z,-0.24
2019-01-04T00:46:55.295Z,-0.27
2019-01-04T00:49:22.447Z,-0.33
2019-01-04T00:51:49.628Z,-0.40
2019-01-04T00:54:16.812Z,-0.46
2019-01-04T00:57:23.376Z,-0.51
2019-01-04T01:00:30.982Z,-0.57
2019-01-04T01:03:37.730Z,-0.61
2019-01-04T01:06:51.539Z,-0.67
2019-01-04T01:09:52.013Z,-0.66
2019-01-04T01:13:06.569Z,-0.51
2019-01-04T01:16:11.743Z,-0.33
2019-01-04T01:19:08.975Z,-0.30
2019-01-04T01:22:08.988Z,-0.12
2019-01-04T01:25:32.084Z,0.01
2019-01-04T01:28:17.187Z,-0.09
2019-01-04T01:31:19.584Z,-0.12
2019-01-04T01:34:39.150Z,-0.18
2019-01-04T01:37:46.634Z,-0.25
2019-01-04T01:40:57.151Z,-0.15
2019-01-04T01:43:52.185Z,-0.02
2019-01-04T01:46:27.563Z,-0.07
2019-01-04T01:49:47.209Z,-0.12
2019-01-04T01:52:21.592Z,-0.19
2019-01-04T01:54:48.780Z,-0.34
2019-01-04T01:57:16.228Z,-0.42
2019-01-04T01:59:43.693Z,-0.46
2019-01-04T02:02:10.837Z,-0.53
2019-01-04T02:04:37.984Z,-0.54
2019-01-04T02:07:05.164Z,-0.54
2019-01-04T02:09:32.480Z,-0.46
2019-01-04T02:11:59.928Z,-0.40
2019-01-04T02:14:27.029Z,-0.33
2019-01-04T02:16:54.232Z,-0.14
2019-01-04T02:19:21.411Z,-0.02
2019-01-04T02:21:48.589Z,-0.01
2019-01-04T02:24:15.764Z,-0.03
2019-01-04T02:26:43.231Z,-0.03
2019-01-04T02:29:10.459Z,-0.03
2019-01-04T02:31:37.731Z,0.05
2019-01-04T02:34:04.885Z,0.04
2019-01-04T02:36:32.076Z,-0.07
2019-01-04T02:38:59.231Z,-0.18
2019-01-04T02:41:26.389Z,-0.18
2019-01-04T02:43:53.613Z,-0.14
2019-01-04T02:46:20.663Z,-0.20
2019-01-04T02:48:47.797Z,-0.19
2019-01-04T02:51:15.480Z,-0.10
2019-01-04T02:53:42.699Z,-0.06
2019-01-04T02:56:09.879Z,-0.01
2019-01-04T02:58:37.048Z,0.07
2019-01-04T03:01:04.452Z,0.14
2019-01-04T03:03:31.596Z,0.24
2019-01-04T03:05:58.688Z,0.34
2019-01-04T03:08:26.160Z,0.42
2019-01-04T03:10:55.324Z,0.45
2019-01-04T03:13:22.773Z,0.47
2019-01-04T03:15:49.921Z,0.50
2019-01-04T03:18:17.104Z,0.56
2019-01-04T03:20:44.211Z,0.62
2019-01-04T03:23:11.387Z,0.72
2019-01-04T03:25:38.534Z,0.77
2019-01-04T03:28:05.622Z,0.82
2019-01-04T03:30:32.775Z,0.86
2019-01-04T03:32:59.837Z,0.91
2019-01-04T03:35:27.010Z,0.93
2019-01-04T03:37:54.154Z,0.95
2019-01-04T03:40:21.334Z,0.98
2019-01-04T03:42:48.518Z,1.01
2019-01-04T03:45:15.764Z,1.02
2019-01-04T03:47:42.878Z,1.09
2019-01-04T03:50:10.058Z,1.12
2019-01-04T03:52:37.225Z,1.17
2019-01-04T03:55:04.532Z,1.17
2019-01-04T03:57:31.697Z,1.17
2019-01-04T03:59:58.873Z,1.17
2019-01-04T04:02:26.032Z,1.16
2019-01-04T04:04:53.207Z,1.19
2019-01-04T04:07:20.649Z,1.18
2019-01-04T04:09:47.836Z,1.19
2019-01-04T04:12:15.019Z,1.17
2019-01-04T04:14:42.121Z,1.16
2019-01-04T04:17:09.299Z,1.16
2019-01-04T04:19:36.512Z,1.12
2019-01-04T04:22:03.694Z,1.10
2019-01-04T04:24:30.845Z,1.10
2019-01-04T04:26:58.041Z,1.09
2019-01-04T04:29:25.190Z,1.11
2019-01-04T04:31:52.673Z,1.05
2019-01-04T04:34:19.861Z,1.00
2019-01-04T04:36:47.071Z,1.02
2019-01-04T04:39:14.245Z,1.05
2019-01-04T04:41:41.435Z,1.08
2019-01-04T04:44:08.580Z,1.10
2019-01-04T04:46:35.759Z,1.12
2019-01-04T04:49:02.930Z,1.17
2019-01-04T04:51:30.379Z,1.20
2019-01-04T04:53:57.555Z,1.23
2019-01-04T04:56:24.655Z,1.27
2019-01-04T04:58:51.806Z,1.28
2019-01-04T05:01:18.986Z,1.31
2019-01-04T05:03:46.221Z,1.37
2019-01-04T05:06:13.402Z,1.36
2019-01-04T05:08:40.560Z,1.36
2019-01-04T05:11:07.763Z,1.35
2019-01-04T05:13:34.913Z,1.33
2019-01-04T05:16:02.120Z,1.32
2019-01-04T05:18:30.223Z,1.30
2019-01-04T05:20:57.296Z,1.33
2019-01-04T05:23:24.481Z,1.35
2019-01-04T05:25:51.767Z,1.34
2019-01-04T05:28:18.918Z,1.38
2019-01-04T05:30:46.364Z,1.36
2019-01-04T05:33:13.586Z,1.27
2019-01-04T05:35:40.969Z,1.20
2019-01-04T05:38:08.035Z,1.17
2019-01-04T05:40:35.367Z,1.11
2019-01-04T05:43:02.525Z,1.06
2019-01-04T05:45:29.710Z,0.99
2019-01-04T05:47:56.790Z,0.90
2019-01-04T05:50:23.954Z,0.80
2019-01-04T05:52:51.105Z,0.72
2019-01-04T05:55:18.308Z,0.63
2019-01-04T05:57:45.458Z,0.61
2019-01-04T06:00:12.607Z,0.54
2019-01-04T06:02:39.810Z,0.45
2019-01-04T06:05:07.060Z,0.35
2019-01-04T06:07:34.221Z,0.35
2019-01-04T06:10:01.405Z,0.35
2019-01-04T06:12:28.544Z,0.44
2019-01-04T06:14:55.594Z,0.45
2019-01-04T06:17:22.814Z,0.44
2019-01-04T06:19:49.898Z,0.44
2019-01-04T06:22:17.052Z,0.38
2019-01-04T06:24:44.271Z,0.30
2019-01-04T06:27:11.734Z,0.28
2019-01-04T06:29:38.903Z,0.24
2019-01-04T06:32:06.343Z,0.17
2019-01-04T06:34:33.574Z,0.08
2019-01-04T06:37:01.058Z,0.02
2019-01-04T06:39:28.282Z,-0.04
2019-01-04T06:41:55.427Z,-0.02
2019-01-04T06:44:22.612Z,0.17
2019-01-04T06:47:11.763Z,0.30
2019-01-04T06:49:38.928Z,0.38
2019-01-04T06:52:06.128Z,0.48
2019-01-04T06:55:10.978Z,0.50
2019-01-04T06:57:38.159Z,0.60
2019-01-04T07:00:05.462Z,0.68
2019-01-04T07:02:32.667Z,0.76
2019-01-04T07:04:59.818Z,0.84
2019-01-04T07:07:27.024Z,0.87
2019-01-04T07:09:54.202Z,0.84
2019-01-04T07:12:21.285Z,0.82
2019-01-04T07:14:48.437Z,0.78
2019-01-04T07:17:15.562Z,0.75
2019-01-04T07:19:42.709Z,0.75
2019-01-04T07:22:09.895Z,0.75
2019-01-04T07:24:37.090Z,0.76
2019-01-04T07:27:04.264Z,0.73
2019-01-04T07:29:31.425Z,0.71
2019-01-04T07:31:58.635Z,0.75
2019-01-04T07:34:25.788Z,0.75
2019-01-04T07:36:52.997Z,0.73
2019-01-04T07:39:20.189Z,0.75
2019-01-04T07:41:47.347Z,0.75
2019-01-04T07:44:14.832Z,0.92
2019-01-04T07:46:42.329Z,0.98
2019-01-04T07:49:09.477Z,1.00
2019-01-04T07:51:36.669Z,1.05
2019-01-04T07:54:03.784Z,1.16
2019-01-04T07:56:30.928Z,1.22
2019-01-04T07:58:58.010Z,1.17
2019-01-04T08:01:25.565Z,1.13
2019-01-04T08:03:52.696Z,1.20
2019-01-04T08:06:19.891Z,1.28
2019-01-04T08:08:47.396Z,1.35
2019-01-04T08:11:14.557Z,1.44
2019-01-04T08:13:41.999Z,1.46
2019-01-04T08:16:09.172Z,1.54
2019-01-04T08:18:36.342Z,1.54
2019-01-04T08:21:03.489Z,1.63
2019-01-04T08:23:30.713Z,1.76
2019-01-04T08:25:58.176Z,1.84
2019-01-04T08:28:25.711Z,1.89
2019-01-04T08:30:52.914Z,2.01
2019-01-04T08:33:20.060Z,2.03
2019-01-04T08:35:47.173Z,2.06
2019-01-04T08:38:14.707Z,2.03
2019-01-04T08:40:41.776Z,1.98
2019-01-04T08:43:08.983Z,1.98
2019-01-04T08:45:36.205Z,2.09
2019-01-04T08:48:03.282Z,2.19
2019-01-04T08:50:30.358Z,2.28
2019-01-04T08:52:57.879Z,2.47
2019-01-04T08:55:26.931Z,2.70
2019-01-04T08:57:54.463Z,2.80
2019-01-04T09:00:21.885Z,2.76
2019-01-04T09:02:49.036Z,2.69
2019-01-04T09:05:16.192Z,2.75
2019-01-04T09:07:43.401Z,2.85
2019-01-04T09:10:10.614Z,2.75
2019-01-04T09:12:37.856Z,2.67
2019-01-04T09:15:07.989Z,2.71
2019-01-04T09:17:35.187Z,2.76
2019-01-04T09:20:02.419Z,2.81
2019-01-04T09:22:29.545Z,2.84
2019-01-04T09:24:56.699Z,2.93
2019-01-04T09:27:23.889Z,3.04
2019-01-04T09:29:51.091Z,3.19
2019-01-04T09:32:18.248Z,3.31
2019-01-04T09:34:45.409Z,3.47
2019-01-04T09:37:12.593Z,3.56
2019-01-04T09:39:39.760Z,3.65
2019-01-04T09:42:12.010Z,3.73
2019-01-04T09:44:39.549Z,3.80
2019-01-04T09:47:06.754Z,3.86
2019-01-04T09:49:33.943Z,4.00
2019-01-04T09:52:01.152Z,4.08
2019-01-04T09:54:28.321Z,4.09
2019-01-04T09:56:55.510Z,4.06
2019-01-04T09:59:22.738Z,4.10
2019-01-04T10:01:49.947Z,4.05
2019-01-04T10:04:17.017Z,4.07
2019-01-04T10:06:44.241Z,4.08
2019-01-04T10:09:11.303Z,4.11
2019-01-04T10:11:38.546Z,4.18
2019-01-04T10:14:05.691Z,4.28
2019-01-04T10:16:32.911Z,4.47
2019-01-04T10:19:00.093Z,4.64
2019-01-04T10:21:27.577Z,4.79
2019-01-04T10:23:54.745Z,4.93
2019-01-04T10:26:21.953Z,5.10
2019-01-04T10:28:49.556Z,5.20
2019-01-04T10:31:16.748Z,5.24
2019-01-04T10:33:43.918Z,5.33
2019-01-04T10:36:10.993Z,5.39
2019-01-04T10:38:38.232Z,5.47
2019-01-04T10:41:05.400Z,5.57
2019-01-04T10:43:32.619Z,5.69
2019-01-04T10:45:59.686Z,5.78
2019-01-04T10:48:26.894Z,5.80
2019-01-04T10:50:53.941Z,5.82
2019-01-04T10:53:21.161Z,5.79
2019-01-04T10:55:48.311Z,5.84
2019-01-04T10:58:15.521Z,5.81
2019-01-04T11:00:42.680Z,5.74
2019-01-04T11:03:09.777Z,5.87
2019-01-04T11:05:36.872Z,5.95
2019-01-04T11:08:04.324Z,6.09
2019-01-04T11:10:31.487Z,6.24
2019-01-04T11:12:58.707Z,6.44
2019-01-04T11:15:26.195Z,6.67
2019-01-04T11:17:53.265Z,6.88
2019-01-04T11:20:40.980Z,7.06
2019-01-04T11:23:54.083Z,7.19
2019-01-04T11:26:48.952Z,7.32
2019-01-04T11:29:47.547Z,7.32
2019-01-04T11:32:42.227Z,7.32
2019-01-04T11:35:24.246Z,7.32
2019-01-04T11:38:18.513Z,7.22
2019-01-04T11:40:59.743Z,7.24
2019-01-04T11:44:08.822Z,7.23
2019-01-04T11:47:08.967Z,7.30
2019-01-04T11:50:07.957Z,7.50
2019-01-04T11:52:42.742Z,7.60
2019-01-04T11:55:09.935Z,7.66
2019-01-04T11:57:37.194Z,7.63
2019-01-04T12:00:05.280Z,7.64
2019-01-04T12:02:32.480Z,7.63
2019-01-04T12:05:02.721Z,7.65
2019-01-04T12:07:30.026Z,7.68
2019-01-04T12:09:57.206Z,7.72
2019-01-04T12:12:24.393Z,7.73
2019-01-04T12:14:51.493Z,7.73
2019-01-04T12:17:18.958Z,7.79
2019-01-04T12:19:46.037Z,7.89
2019-01-04T12:22:13.226Z,7.84
2019-01-04T12:24:40.413Z,7.80
2019-01-04T12:27:07.588Z,7.79
2019-01-04T12:29:34.782Z,7.82
2019-01-04T12:32:01.985Z,7.77
2019-01-04T12:34:29.150Z,7.80
2019-01-04T12:36:56.344Z,7.75
2019-01-04T12:39:23.550Z,7.69
2019-01-04T12:41:50.720Z,7.62
2019-01-04T12:44:17.922Z,7.48
2019-01-04T12:46:45.407Z,7.32
2019-01-04T12:49:12.561Z,7.11
2019-01-04T12:51:40.021Z,6.93
2019-01-04T12:54:07.205Z,6.79
2019-01-04T12:56:34.293Z,6.72
2019-01-04T12:59:01.788Z,6.68
2019-01-04T13:01:29.173Z,6.66
2019-01-04T13:03:56.345Z,6.63
2019-01-04T13:06:23.452Z,6.46
2019-01-04T13:08:50.649Z,6.39
2019-01-04T13:11:17.867Z,6.32
2019-01-04T13:13:45.052Z,6.23
2019-01-04T13:16:12.258Z,6.16
2019-01-04T13:18:39.668Z,6.19
2019-01-04T13:21:07.095Z,6.36
2019-01-04T13:23:34.588Z,6.26
2019-01-04T13:26:02.117Z,6.19
2019-01-04T13:28:29.305Z,6.11
2019-01-04T13:30:56.788Z,6.02
2019-01-04T13:33:23.969Z,6.00
2019-01-04T13:35:51.060Z,6.04
2019-01-04T13:38:20.149Z,5.94
2019-01-04T13:40:47.285Z,5.92
2019-01-04T13:43:14.399Z,5.96
2019-01-04T13:45:41.650Z,5.99
2019-01-04T13:48:08.736Z,5.90
2019-01-04T13:50:35.838Z,5.78
2019-01-04T13:53:03.022Z,5.73
2019-01-04T13:55:30.223Z,5.71
2019-01-04T13:57:57.452Z,5.67
2019-01-04T14:00:24.653Z,5.69
2019-01-04T14:02:51.848Z,5.75
2019-01-04T14:05:19.054Z,5.75
2019-01-04T14:07:46.253Z,5.77
2019-01-04T14:10:13.502Z,5.76
2019-01-04T14:12:40.701Z,5.86
2019-01-04T14:15:08.083Z,5.83
2019-01-04T14:17:35.247Z,5.79
2019-01-04T14:20:02.483Z,5.76
2019-01-04T14:22:29.678Z,5.83
2019-01-04T14:24:56.771Z,5.72
2019-01-04T14:27:24.010Z,5.67
2019-01-04T14:29:51.271Z,5.66
2019-01-04T14:32:18.435Z,5.67
2019-01-04T14:34:45.611Z,5.63
2019-01-04T14:37:12.933Z,5.67
2019-01-04T14:39:40.119Z,5.80
2019-01-04T14:42:07.291Z,5.74
2019-01-04T14:44:34.537Z,5.62
2019-01-04T14:47:01.737Z,5.53
2019-01-04T14:49:28.903Z,5.48
2019-01-04T14:51:56.144Z,5.44
2019-01-04T14:54:23.611Z,5.48
2019-01-04T14:56:50.816Z,5.57
2019-01-04T14:59:17.994Z,5.58
2019-01-04T15:01:45.108Z,5.59
2019-01-04T15:04:12.273Z,5.60
2019-01-04T15:06:39.400Z,5.51
2019-01-04T15:09:06.707Z,5.42
2019-01-04T15:11:33.932Z,5.37
2019-01-04T15:14:01.127Z,5.35
2019-01-04T15:16:28.328Z,5.33
2019-01-04T15:18:55.488Z,5.30
2019-01-04T15:21:22.662Z,5.26
2019-01-04T15:23:49.857Z,5.25
2019-01-04T15:26:17.036Z,5.28
2019-01-04T15:28:44.266Z,5.27
2019-01-04T15:31:11.420Z,5.25
2019-01-04T15:33:38.590Z,5.21
2019-01-04T15:36:05.684Z,5.23
2019-01-04T15:38:36.350Z,5.18
2019-01-04T15:41:02.290Z,5.19
2019-01-04T15:43:29.400Z,5.16
2019-01-04T15:45:56.596Z,5.13
2019-01-04T15:48:23.726Z,5.11
2019-01-04T15:50:50.838Z,5.21
2019-01-04T15:53:18.021Z,5.19
2019-01-04T15:55:45.191Z,5.18
2019-01-04T15:58:12.762Z,5.15
2019-01-04T16:00:39.942Z,5.20
2019-01-04T16:03:07.122Z,5.21
2019-01-04T16:05:34.228Z,5.20
2019-01-04T16:08:01.435Z,5.21
2019-01-04T16:10:28.611Z,5.19
2019-01-04T16:12:55.827Z,5.16
2019-01-04T16:15:22.983Z,5.13
2019-01-04T16:17:50.696Z,5.10
2019-01-04T16:20:17.973Z,5.13
2019-01-04T16:22:45.413Z,5.13
2019-01-04T16:25:12.592Z,5.09
2019-01-04T16:27:39.831Z,5.07
2019-01-04T16:30:09.117Z,5.11
2019-01-04T16:32:36.617Z,5.07
2019-01-04T16:35:03.885Z,5.03
2019-01-04T16:37:31.101Z,4.97
2019-01-04T16:39:58.265Z,4.98
2019-01-04T16:42:25.802Z,4.95
2019-01-04T16:44:53.022Z,4.99
2019-01-04T16:47:20.421Z,5.04
2019-01-04T16:49:47.708Z,4.91
2019-01-04T16:52:14.881Z,4.84
2019-01-04T16:54:42.069Z,4.72
2019-01-04T16:57:09.532Z,4.66
2019-01-04T16:59:36.993Z,4.72
2019-01-04T17:02:04.655Z,4.66
2019-01-04T17:04:31.843Z,4.59
2019-01-04T17:06:58.997Z,4.61
2019-01-04T17:09:26.245Z,4.57
2019-01-04T17:11:53.339Z,4.56
2019-01-04T17:14:20.535Z,4.58
2019-01-04T17:16:47.714Z,4.58
2019-01-04T17:19:15.178Z,4.59
2019-01-04T17:21:42.388Z,4.61
2019-01-04T17:24:09.852Z,4.62
2019-01-04T17:26:37.069Z,4.64
2019-01-04T17:29:04.258Z,4.72
2019-01-04T17:31:31.436Z,4.77
2019-01-04T17:33:58.631Z,4.84
2019-01-04T17:36:26.810Z,4.90
2019-01-04T17:38:54.001Z,4.99
2019-01-04T17:41:21.549Z,4.97
2019-01-04T17:43:49.329Z,5.00
2019-01-04T17:46:16.530Z,5.10
2019-01-04T17:48:43.748Z,5.00
2019-01-04T17:51:10.936Z,4.95
2019-01-04T17:53:38.135Z,4.98
2019-01-04T17:56:05.647Z,5.03
2019-01-04T17:58:32.867Z,5.06
2019-01-04T18:01:00.382Z,5.09
2019-01-04T18:03:27.644Z,5.11
2019-01-04T18:05:54.696Z,5.10
2019-01-04T18:08:21.885Z,5.16
2019-01-04T18:10:49.152Z,5.13
2019-01-04T18:13:16.329Z,5.22
2019-01-04T18:15:43.492Z,5.29
2019-01-04T18:18:10.694Z,5.24
2019-01-04T18:20:37.781Z,5.25
2019-01-04T18:23:05.005Z,5.20
2019-01-04T18:25:32.220Z,5.12
2019-01-04T18:27:59.401Z,5.25
2019-01-04T18:30:26.522Z,5.19
2019-01-04T18:32:53.745Z,5.18
2019-01-04T18:35:20.841Z,5.17
2019-01-04T18:37:48.037Z,5.12
2019-01-04T18:40:15.451Z,5.25
2019-01-04T18:42:42.920Z,5.19
2019-01-04T18:45:10.114Z,5.15
2019-01-04T18:47:39.411Z,5.15
2019-01-04T18:50:08.670Z,5.17
2019-01-04T18:52:35.873Z,5.21
2019-01-04T18:55:03.177Z,5.21
2019-01-04T18:57:30.395Z,5.30
2019-01-04T18:59:57.569Z,5.30
2019-01-04T19:02:24.808Z,5.25
2019-01-04T19:04:52.038Z,5.26
2019-01-04T19:07:19.237Z,5.22
2019-01-04T19:09:46.483Z,5.34
2019-01-04T19:12:13.594Z,5.29
2019-01-04T19:14:41.103Z,5.35
2019-01-04T19:17:08.252Z,5.28
2019-01-04T19:19:35.432Z,5.21
2019-01-04T19:22:02.653Z,5.21
2019-01-04T19:24:29.852Z,5.29
2019-01-04T19:26:57.056Z,5.41
2019-01-04T19:29:24.275Z,5.30
2019-01-04T19:31:51.474Z,5.20
2019-01-04T19:34:18.648Z,5.15
2019-01-04T19:36:45.784Z,5.17
2019-01-04T19:39:13.030Z,5.27
2019-01-04T19:41:40.462Z,5.27
2019-01-04T19:44:07.623Z,5.19
2019-01-04T19:46:34.840Z,5.29
2019-01-04T19:49:02.009Z,5.28
2019-01-04T19:51:29.255Z,5.17
2019-01-04T19:53:56.346Z,5.26
2019-01-04T19:56:23.513Z,5.26
2019-01-04T19:58:50.610Z,5.19
2019-01-04T20:01:17.855Z,5.20
2019-01-04T20:03:45.353Z,5.26
2019-01-04T20:07:29.091Z,5.27
2019-01-04T20:10:50.574Z,5.27
2019-01-04T20:14:32.149Z,5.29
2019-01-04T20:17:13.104Z,5.28
2019-01-04T20:20:05.695Z,5.21
2019-01-04T20:22:51.218Z,5.22
2019-01-04T20:25:43.636Z,5.27
2019-01-04T20:28:38.742Z,5.21
2019-01-04T20:31:23.993Z,5.10
2019-01-04T20:34:11.212Z,5.06
2019-01-04T20:37:01.133Z,5.02
2019-01-04T20:39:47.985Z,5.03
2019-01-04T20:42:49.661Z,5.04
2019-01-04T20:45:34.813Z,5.07
2019-01-04T20:48:16.367Z,5.17
2019-01-04T20:51:09.175Z,5.19
2019-01-04T20:54:07.919Z,5.21
2019-01-04T20:57:00.361Z,5.19
2019-01-04T20:59:46.128Z,5.19
2019-01-04T21:02:39.880Z,5.12
2019-01-04T21:05:17.086Z,5.06
2019-01-04T21:08:00.173Z,5.14
2019-01-04T21:10:45.412Z,5.04
2019-01-04T21:13:41.311Z,5.09
2019-01-04T21:16:26.610Z,5.02
2019-01-04T21:19:13.692Z,5.09
2019-01-04T21:22:03.520Z,5.05
2019-01-04T21:24:53.348Z,5.14
2019-01-04T21:27:46.173Z,5.11
2019-01-04T21:30:33.076Z,5.03
2019-01-04T21:33:20.625Z,5.06
2019-01-04T21:36:06.326Z,5.08
2019-01-04T21:38:53.834Z,5.05
2019-01-04T21:41:58.762Z,4.88
2019-01-04T21:44:51.473Z,5.00
2019-01-04T21:47:45.798Z,4.97
2019-01-04T21:50:31.570Z,4.93
2019-01-04T21:53:16.864Z,4.90
2019-01-04T21:56:01.396Z,5.01
2019-01-04T21:58:46.674Z,5.09
2019-01-04T22:01:48.709Z,4.93
2019-01-04T22:04:47.324Z,5.00
2019-01-04T22:07:43.604Z,4.96
2019-01-04T22:10:28.580Z,4.88
2019-01-04T22:13:33.600Z,4.86
2019-01-04T22:16:20.653Z,5.03
2019-01-04T22:19:03.947Z,4.98
2019-01-04T22:21:51.941Z,5.15
2019-01-04T22:24:38.726Z,4.97
2019-01-04T22:27:26.881Z,4.88
2019-01-04T22:30:08.890Z,4.97
2019-01-04T22:32:54.167Z,4.99
2019-01-04T22:35:39.883Z,4.98
2019-01-04T22:38:26.813Z,4.87
2019-01-04T22:41:08.840Z,4.97
2019-01-04T22:43:58.665Z,4.94
2019-01-04T22:46:45.507Z,4.89
2019-01-04T22:49:33.128Z,5.06
2019-01-04T22:52:29.120Z,5.02
2019-01-04T22:55:21.825Z,5.10
2019-01-04T22:58:07.382Z,5.10
2019-01-04T23:00:53.814Z,5.07
2019-01-04T23:03:58.479Z,5.03
2019-01-04T23:06:48.148Z,5.09
2019-01-04T23:09:26.803Z,5.23
2019-01-04T23:12:11.606Z,5.33
2019-01-04T23:14:56.579Z,5.31
2019-01-04T23:17:41.331Z,5.31
2019-01-04T23:20:38.113Z,5.29
2019-01-04T23:23:23.647Z,5.22
2019-01-04T23:26:19.652Z,5.26
2019-01-04T23:29:12.265Z,5.17
2019-01-04T23:31:58.114Z,5.18
2019-01-04T23:34:43.292Z,5.16
2019-01-04T23:37:48.007Z,5.19
2019-01-04T23:40:35.619Z,5.24
2019-01-04T23:43:31.307Z,5.21
2019-01-04T23:46:23.940Z,5.25
2019-01-04T23:49:25.798Z,5.27
2019-01-04T23:52:10.957Z,5.30
2019-01-04T23:55:13.565Z,5.33
2019-01-04T23:58:12.102Z,5.36
